Time;durP1;ratioP1;P1;durP2;ratioP2;P2;SDS_P1;SDS_P2;PMS_P1;PMS_P2;Temp;Humidity;BMP_temperature;BMP_pressure;BME280_temperature;BME280_humidity;BME280_pressure;Samples;Min_cycle;Max_cycle;Signal;HPM_P1;HPM_P2
2022/06/03 00:02:24;;;;;;;0.40;0.40;;;14.20;99.90;;;;;;5117516;28;20999;-70
2022/06/03 00:05:27;;;;;;;0.40;0.40;;;14.20;99.90;;;;;;5116407;28;20498;-69
2022/06/03 00:08:49;;;;;;;0.30;0.30;;;14.10;99.90;;;;;;5117599;28;20760;-70
2022/06/03 00:11:31;;;;;;;0.30;0.30;;;14.00;99.90;;;;;;5109910;28;20433;-68
2022/06/03 00:14:09;;;;;;;0.50;0.50;;;13.90;99.90;;;;;;5117310;28;20477;-69
2022/06/03 00:16:50;;;;;;;0.30;0.30;;;13.90;99.90;;;;;;5117606;28;20405;-69
2022/06/03 00:20:00;;;;;;;0.30;0.30;;;13.90;99.90;;;;;;5117566;28;20389;-70
2022/06/03 00:22:31;;;;;;;0.30;0.30;;;14.00;99.90;;;;;;5114602;28;20470;-71
2022/06/03 00:25:28;;;;;;;0.30;0.30;;;14.10;99.90;;;;;;5117253;28;20453;-71
2022/06/03 00:28:00;;;;;;;0.30;0.30;;;14.00;99.90;;;;;;5117377;28;20397;-71
2022/06/03 00:31:04;;;;;;;0.77;0.77;;;14.00;99.90;;;;;;5117047;28;20426;-70
2022/06/03 00:33:55;;;;;;;0.30;0.30;;;14.10;99.90;;;;;;5117017;28;20394;-70
2022/06/03 00:36:24;;;;;;;0.50;0.50;;;14.10;99.90;;;;;;5117182;28;20485;-70
2022/06/03 00:39:02;;;;;;;0.30;0.30;;;14.20;99.90;;;;;;5117159;28;20390;-71
2022/06/03 00:41:43;;;;;;;0.30;0.30;;;14.20;99.90;;;;;;5116851;28;20492;-70
2022/06/03 00:44:34;;;;;;;0.30;0.30;;;14.10;99.90;;;;;;5116608;28;20660;-69
2022/06/03 00:47:19;;;;;;;0.30;0.30;;;14.00;99.90;;;;;;5116742;28;20398;-71
2022/06/03 00:50:24;;;;;;;0.30;0.30;;;13.90;99.90;;;;;;5116821;28;20385;-71
2022/06/03 00:52:53;;;;;;;0.30;0.30;;;13.80;99.90;;;;;;5116635;28;20782;-70
2022/06/03 00:55:24;;;;;;;0.30;0.30;;;13.80;99.90;;;;;;5116105;28;20790;-71
2022/06/03 00:57:53;;;;;;;0.30;0.30;;;13.70;99.90;;;;;;5116612;28;20490;-71
2022/06/03 01:00:28;;;;;;;1.00;1.00;;;13.80;99.90;;;;;;5116890;27;20402;-70
2022/06/03 01:03:21;;;;;;;0.30;0.30;;;13.80;99.90;;;;;;5116375;28;20393;-71
2022/06/03 01:06:21;;;;;;;0.30;0.30;;;13.80;99.90;;;;;;5116715;28;20409;-69
2022/06/03 01:08:58;;;;;;;0.30;0.30;;;13.80;99.90;;;;;;5116623;27;20398;-69
2022/06/03 01:11:48;;;;;;;0.30;0.30;;;13.80;99.90;;;;;;5116356;28;20789;-70
2022/06/03 01:14:38;;;;;;;0.60;0.50;;;13.70;99.90;;;;;;5116121;28;20400;-69
2022/06/03 01:17:22;;;;;;;0.30;0.30;;;13.70;99.90;;;;;;5115027;28;20420;-72
2022/06/03 01:20:12;;;;;;;1.13;1.13;;;13.70;99.90;;;;;;5116411;28;20753;-70
2022/06/03 01:23:14;;;;;;;0.30;0.30;;;13.80;99.90;;;;;;5115682;28;20441;-70
2022/06/03 01:26:02;;;;;;;0.30;0.30;;;13.80;99.90;;;;;;5116187;28;20401;-71
2022/06/03 01:28:44;;;;;;;0.30;0.30;;;13.70;99.90;;;;;;5116164;28;20397;-71
2022/06/03 01:31:48;;;;;;;0.30;0.30;;;13.80;99.90;;;;;;5115924;28;20956;-69
2022/06/03 01:34:14;;;;;;;0.50;0.50;;;13.80;99.90;;;;;;5108207;28;20453;-69
2022/06/03 01:36:46;;;;;;;0.30;0.30;;;13.70;99.90;;;;;;5116014;28;20401;-70
2022/06/03 01:39:30;;;;;;;0.30;0.30;;;13.80;99.90;;;;;;5115787;28;20422;-69
2022/06/03 01:42:24;;;;;;;0.30;0.30;;;13.80;99.90;;;;;;5115651;28;20424;-71
2022/06/03 01:44:59;;;;;;;0.50;0.50;;;13.80;99.90;;;;;;5115930;28;20438;-71
2022/06/03 01:47:24;;;;;;;0.30;0.30;;;13.80;99.90;;;;;;5116091;28;20404;-71
2022/06/03 01:50:05;;;;;;;0.30;0.30;;;13.80;99.90;;;;;;5115820;28;20400;-71
2022/06/03 01:53:01;;;;;;;0.30;0.30;;;13.90;99.90;;;;;;5115355;28;20183;-71
2022/06/03 01:55:46;;;;;;;0.30;0.30;;;13.90;99.90;;;;;;5115617;28;20403;-68
2022/06/03 01:58:36;;;;;;;0.30;0.30;;;13.90;99.90;;;;;;5115372;28;20409;-71
2022/06/03 02:01:38;;;;;;;0.30;0.30;;;14.00;99.90;;;;;;5115502;28;20513;-71
2022/06/03 02:04:36;;;;;;;0.30;0.30;;;14.00;99.90;;;;;;5115011;28;20544;-68
2022/06/03 02:07:25;;;;;;;0.30;0.30;;;14.00;99.90;;;;;;5114850;28;20538;-70
2022/06/03 02:10:46;;;;;;;0.30;0.30;;;14.10;99.90;;;;;;5115142;28;20416;-71
2022/06/03 02:13:29;;;;;;;0.30;0.30;;;14.20;99.90;;;;;;5060058;27;20479;-69
2022/06/03 02:16:22;;;;;;;0.30;0.30;;;14.30;99.90;;;;;;5115242;27;20394;-70
2022/06/03 02:19:25;;;;;;;0.30;0.30;;;14.30;99.90;;;;;;5115237;28;20886;-71
2022/06/03 02:22:21;;;;;;;0.30;0.30;;;14.30;99.90;;;;;;5115066;28;20428;-71
2022/06/03 02:25:11;;;;;;;0.30;0.30;;;14.30;99.90;;;;;;5115028;28;20445;-71
2022/06/03 02:27:37;;;;;;;0.30;0.30;;;14.20;99.90;;;;;;5114903;28;20398;-71
2022/06/03 02:33:14;;;;;;;0.30;0.30;;;14.30;99.90;;;;;;5114573;28;20202;-70
2022/06/03 02:36:25;;;;;;;0.40;0.40;;;14.40;99.90;;;;;;5114767;28;20883;-70
2022/06/03 02:39:13;;;;;;;0.30;0.30;;;14.40;99.90;;;;;;5098333;28;20402;-69
2022/06/03 02:41:51;;;;;;;0.30;0.30;;;14.50;99.90;;;;;;5114547;28;20418;-69
2022/06/03 02:44:40;;;;;;;0.30;0.30;;;14.40;99.90;;;;;;5114325;28;20447;-70
2022/06/03 02:47:37;;;;;;;0.30;0.30;;;14.40;99.90;;;;;;5114642;28;20922;-71
2022/06/03 02:50:14;;;;;;;0.60;0.60;;;14.40;99.90;;;;;;5114382;28;20425;-69
2022/06/03 02:53:03;;;;;;;0.30;0.30;;;14.30;99.90;;;;;;5112885;28;20437;-71
2022/06/03 02:55:40;;;;;;;0.30;0.30;;;14.20;99.90;;;;;;5114504;28;20390;-72
2022/06/03 02:58:20;;;;;;;0.63;0.63;;;14.30;99.90;;;;;;5114502;28;20385;-71
2022/06/03 03:00:56;;;;;;;0.30;0.30;;;14.30;99.90;;;;;;5114292;28;20409;-70
2022/06/03 03:03:48;;;;;;;0.30;0.30;;;14.30;99.90;;;;;;5114151;28;20995;-70
2022/06/03 03:06:51;;;;;;;0.30;0.30;;;14.20;99.90;;;;;;5114442;28;20394;-72
2022/06/03 03:09:23;;;;;;;0.40;0.40;;;14.20;99.90;;;;;;5114137;28;20460;-71
2022/06/03 03:12:16;;;;;;;1.17;1.07;;;14.30;99.90;;;;;;5114281;28;20548;-70
2022/06/03 03:15:00;;;;;;;0.30;0.30;;;14.30;99.90;;;;;;5114217;28;20406;-69
2022/06/03 03:17:47;;;;;;;0.30;0.30;;;14.30;99.90;;;;;;5114123;28;20409;-71
2022/06/03 03:20:19;;;;;;;0.30;0.30;;;14.40;99.90;;;;;;5113998;28;20468;-69
2022/06/03 03:23:03;;;;;;;0.30;0.30;;;14.40;99.90;;;;;;5113646;28;20441;-72
2022/06/03 03:25:52;;;;;;;0.40;0.40;;;14.40;99.90;;;;;;5113932;28;20403;-70
2022/06/03 03:28:54;;;;;;;0.30;0.30;;;14.40;99.90;;;;;;5114061;28;20390;-69
2022/06/03 03:31:37;;;;;;;0.30;0.30;;;14.30;99.90;;;;;;5114046;28;20437;-70
2022/06/03 03:34:49;;;;;;;0.30;0.30;;;14.30;99.90;;;;;;5113771;28;20394;-71
2022/06/03 03:37:42;;;;;;;0.30;0.30;;;14.20;99.90;;;;;;5081713;28;20437;-70
2022/06/03 03:40:08;;;;;;;0.30;0.30;;;14.10;99.90;;;;;;5113853;28;20397;-69
2022/06/03 03:43:05;;;;;;;0.40;0.40;;;14.10;99.90;;;;;;5113580;28;20424;-69
2022/06/03 03:45:49;;;;;;;0.30;0.30;;;14.00;99.90;;;;;;5114093;28;20691;-70
2022/06/03 03:48:52;;;;;;;0.30;0.30;;;14.00;99.90;;;;;;5113750;28;20396;-70
2022/06/03 03:51:32;;;;;;;0.30;0.30;;;14.10;99.90;;;;;;5113774;28;20417;-71
2022/06/03 03:54:33;;;;;;;0.30;0.30;;;14.10;99.90;;;;;;5113528;28;20397;-69
2022/06/03 03:57:04;;;;;;;0.57;0.57;;;14.00;99.90;;;;;;5076180;28;20783;-69
2022/06/03 03:59:57;;;;;;;0.30;0.30;;;14.00;99.90;;;;;;5113772;28;20401;-70
2022/06/03 04:03:04;;;;;;;0.30;0.30;;;13.90;99.90;;;;;;5113570;28;20418;-72
2022/06/03 04:05:51;;;;;;;0.30;0.30;;;14.00;99.90;;;;;;5113852;28;20742;-71
2022/06/03 04:08:29;;;;;;;0.30;0.30;;;14.10;99.90;;;;;;5113691;28;20397;-71
2022/06/03 04:11:13;;;;;;;0.30;0.30;;;14.10;99.90;;;;;;5113574;28;20515;-70
2022/06/03 04:13:51;;;;;;;0.30;0.30;;;14.20;99.90;;;;;;5113379;28;20394;-71
2022/06/03 04:16:25;;;;;;;0.30;0.30;;;14.30;99.90;;;;;;5113720;28;20397;-71
2022/06/03 04:19:02;;;;;;;0.30;0.30;;;14.30;99.90;;;;;;5113678;28;20394;-71
2022/06/03 04:22:00;;;;;;;0.30;0.30;;;14.40;99.90;;;;;;5113336;28;20424;-71
2022/06/03 04:25:06;;;;;;;0.30;0.30;;;14.50;99.90;;;;;;5113361;28;20792;-72
2022/06/03 04:27:50;;;;;;;0.30;0.30;;;14.60;99.90;;;;;;5107509;28;20512;-70
2022/06/03 04:30:43;;;;;;;0.50;0.50;;;15.00;99.90;;;;;;5113625;28;20437;-71
2022/06/03 04:33:54;;;;;;;0.30;0.30;;;15.90;99.90;;;;;;5117041;28;20382;-69
2022/06/03 04:36:20;;;;;;;0.40;0.40;;;16.70;99.90;;;;;;5100716;28;20466;-70
2022/06/03 04:39:07;;;;;;;0.30;0.30;;;17.10;99.90;;;;;;5116981;28;20409;-69
2022/06/03 04:41:35;;;;;;;0.30;0.30;;;17.40;99.90;;;;;;5117002;28;20461;-70
2022/06/03 04:44:38;;;;;;;0.30;0.30;;;17.50;99.90;;;;;;5116809;28;20993;-72
2022/06/03 04:47:19;;;;;;;1.53;1.53;;;17.60;99.90;;;;;;5116994;28;20399;-69
2022/06/03 04:50:30;;;;;;;0.40;0.40;;;17.70;99.90;;;;;;5116928;28;20386;-71
2022/06/03 04:53:20;;;;;;;0.40;0.40;;;17.90;99.90;;;;;;5116607;28;20437;-70
2022/06/03 04:56:03;;;;;;;0.40;0.40;;;18.20;99.90;;;;;;5116647;28;20388;-71
2022/06/03 04:58:53;;;;;;;0.30;0.30;;;18.60;99.90;;;;;;5116766;28;20396;-70
2022/06/03 05:01:40;;;;;;;0.47;0.47;;;18.90;99.90;;;;;;5116958;28;20416;-70
2022/06/03 05:04:30;;;;;;;2.20;1.57;;;19.40;99.90;;;;;;5116364;27;20494;-70
2022/06/03 05:07:27;;;;;;;0.80;0.80;;;19.90;99.90;;;;;;5117095;28;20393;-71
2022/06/03 05:10:45;;;;;;;0.40;0.40;;;20.40;99.40;;;;;;5116395;28;20402;-69
2022/06/03 05:13:42;;;;;;;0.30;0.30;;;20.60;97.70;;;;;;5115984;28;20415;-70
2022/06/03 05:16:19;;;;;;;0.30;0.30;;;20.50;97.10;;;;;;5116377;28;20480;-69
2022/06/03 05:18:50;;;;;;;0.40;0.40;;;20.40;97.00;;;;;;5116642;28;20398;-70
2022/06/03 05:21:47;;;;;;;0.30;0.30;;;20.30;96.60;;;;;;5116250;28;20422;-73
2022/06/03 05:24:49;;;;;;;0.30;0.30;;;20.50;96.90;;;;;;5115826;28;20862;-72
2022/06/03 05:27:42;;;;;;;0.30;0.30;;;20.80;96.60;;;;;;5116165;28;20394;-71
2022/06/03 05:30:45;;;;;;;0.30;0.30;;;21.00;96.60;;;;;;5116155;28;20394;-72
2022/06/03 05:33:37;;;;;;;0.50;0.50;;;21.30;96.00;;;;;;5115860;28;20754;-71
2022/06/03 05:36:22;;;;;;;0.30;0.30;;;21.60;95.70;;;;;;5116138;28;20792;-70
2022/06/03 05:39:39;;;;;;;0.47;0.47;;;21.60;95.70;;;;;;5115836;28;20476;-70
2022/06/03 05:42:23;;;;;;;0.50;0.50;;;21.80;96.00;;;;;;5092205;28;20828;-71
2022/06/03 05:45:04;;;;;;;0.70;0.60;;;21.90;96.10;;;;;;5115808;28;20788;-70
2022/06/03 05:47:48;;;;;;;0.50;0.50;;;22.10;95.70;;;;;;5115914;28;20400;-70
2022/06/03 05:50:40;;;;;;;0.50;0.50;;;22.10;95.20;;;;;;5115698;28;20417;-70
2022/06/03 05:53:39;;;;;;;0.30;0.30;;;22.10;95.40;;;;;;5115367;28;20396;-71
2022/06/03 05:56:29;;;;;;;0.30;0.30;;;22.00;95.00;;;;;;5115765;28;20397;-72
2022/06/03 05:59:18;;;;;;;0.30;0.30;;;21.80;95.20;;;;;;5115597;28;20836;-71
2022/06/03 06:02:10;;;;;;;0.30;0.30;;;21.60;95.50;;;;;;5115344;28;20449;-72
2022/06/03 06:05:18;;;;;;;0.30;0.30;;;21.50;95.90;;;;;;5115299;28;20479;-70
2022/06/03 06:08:08;;;;;;;0.40;0.40;;;21.40;96.10;;;;;;5114155;28;20447;-71
2022/06/03 06:10:57;;;;;;;0.30;0.30;;;21.50;97.80;;;;;;5115360;28;20396;-71
2022/06/03 06:13:29;;;;;;;0.30;0.30;;;21.40;96.70;;;;;;5115036;28;20393;-70
2022/06/03 06:16:19;;;;;;;0.30;0.30;;;21.70;96.90;;;;;;5115250;28;20401;-70
2022/06/03 06:19:00;;;;;;;0.40;0.40;;;22.10;96.60;;;;;;5115147;28;20405;-72
2022/06/03 06:22:05;;;;;;;0.30;0.30;;;22.50;96.00;;;;;;5114930;28;20424;-71
2022/06/03 06:24:51;;;;;;;0.40;0.40;;;22.80;95.90;;;;;;5114801;28;20552;-72
2022/06/03 06:27:44;;;;;;;1.13;0.60;;;23.10;95.80;;;;;;5115000;28;20398;-71
2022/06/03 06:30:18;;;;;;;0.30;0.30;;;23.30;95.10;;;;;;5114990;28;20390;-71
2022/06/03 06:33:02;;;;;;;0.40;0.40;;;23.30;94.90;;;;;;5114595;28;20825;-70
2022/06/03 06:36:09;;;;;;;0.80;0.73;;;23.10;95.10;;;;;;5113486;28;20390;-72
2022/06/03 06:38:35;;;;;;;0.40;0.40;;;23.00;95.50;;;;;;5114861;28;20756;-70
2022/06/03 06:41:16;;;;;;;0.30;0.30;;;23.10;95.60;;;;;;5114708;28;20418;-71
2022/06/03 06:44:00;;;;;;;0.73;0.73;;;23.00;95.40;;;;;;5114416;28;20234;-72
2022/06/03 06:46:48;;;;;;;0.30;0.30;;;22.80;95.50;;;;;;5114580;28;20393;-72
2022/06/03 06:49:26;;;;;;;0.50;0.50;;;22.50;95.70;;;;;;5114463;28;20405;-72
2022/06/03 06:52:25;;;;;;;0.30;0.30;;;22.10;96.70;;;;;;5114384;28;20395;-72
2022/06/03 06:55:09;;;;;;;0.30;0.30;;;21.60;97.10;;;;;;5114388;28;20446;-71
2022/06/03 06:57:46;;;;;;;0.30;0.30;;;21.40;97.50;;;;;;5114532;28;20397;-72
2022/06/03 07:00:33;;;;;;;0.30;0.30;;;21.20;98.00;;;;;;5114834;28;20386;-72
2022/06/03 07:03:03;;;;;;;0.50;0.50;;;21.40;99.70;;;;;;5114202;28;20389;-71
2022/06/03 07:05:53;;;;;;;0.30;0.30;;;21.90;99.40;;;;;;5114410;28;20719;-71
2022/06/03 07:08:24;;;;;;;0.40;0.40;;;22.50;95.70;;;;;;5114660;28;20444;-73
2022/06/03 07:11:12;;;;;;;0.50;0.50;;;23.10;96.20;;;;;;5114222;28;20424;-72
2022/06/03 07:13:38;;;;;;;0.40;0.40;;;23.70;95.40;;;;;;5114248;28;20477;-71
2022/06/03 07:16:09;;;;;;;0.30;0.30;;;24.30;95.30;;;;;;5114284;28;20595;-70
2022/06/03 07:21:55;;;;;;;0.40;0.40;;;26.60;91.70;;;;;;5113969;28;20529;-69
2022/06/03 07:24:58;;;;;;;1.70;1.53;;;28.30;89.00;;;;;;5113793;28;20446;-71
2022/06/03 07:27:35;;;;;;;1.00;0.90;;;29.30;83.40;;;;;;5097909;28;20410;-73
2022/06/03 07:30:23;;;;;;;0.50;0.50;;;30.10;75.00;;;;;;5114153;28;20390;-73
2022/06/03 07:33:09;;;;;;;0.30;0.30;;;30.60;70.80;;;;;;5113793;28;20772;-71
2022/06/03 07:36:01;;;;;;;0.60;0.60;;;31.10;63.70;;;;;;5114148;28;20474;-73
2022/06/03 07:38:37;;;;;;;0.30;0.30;;;31.90;64.30;;;;;;5111871;28;20427;-72
2022/06/03 07:41:23;;;;;;;0.30;0.30;;;32.80;58.00;;;;;;5114014;28;20773;-70
2022/06/03 07:43:54;;;;;;;0.30;0.30;;;33.90;55.40;;;;;;5113635;28;20445;-72
2022/06/03 07:46:28;;;;;;;0.70;0.70;;;34.80;55.20;;;;;;5113887;28;20398;-73
2022/06/03 07:48:54;;;;;;;0.30;0.30;;;35.30;55.40;;;;;;5113854;28;20421;-73
2022/06/03 07:51:31;;;;;;;0.30;0.30;;;35.50;54.40;;;;;;5113763;28;20422;-73
2022/06/03 07:54:12;;;;;;;0.40;0.40;;;35.60;50.10;;;;;;5113528;28;20420;-72
2022/06/03 07:56:39;;;;;;;0.50;0.40;;;35.80;49.80;;;;;;5113708;28;20429;-71
2022/06/03 07:59:28;;;;;;;0.57;0.57;;;36.90;49.50;;;;;;5113783;28;20413;-72
2022/06/03 08:02:01;;;;;;;0.43;0.40;;;37.50;46.80;;;;;;5113461;28;20468;-73
2022/06/03 08:04:38;;;;;;;0.30;0.30;;;37.90;43.90;;;;;;5113998;28;20493;-72
2022/06/03 08:12:59;;;;;;;0.40;0.40;;;38.90;36.00;;;;;;5117787;28;20404;-72
2022/06/03 08:15:37;;;;;;;0.30;0.30;;;38.50;38.40;;;;;;5117489;28;20420;-70
2022/06/03 08:18:06;;;;;;;0.50;0.50;;;39.20;37.00;;;;;;5117425;28;20610;-70
2022/06/03 08:20:37;;;;;;;0.50;0.50;;;39.40;36.60;;;;;;5117407;28;20404;-70
2022/06/03 08:23:04;;;;;;;0.40;0.40;;;39.80;35.00;;;;;;5116895;28;20967;-71
2022/06/03 08:25:37;;;;;;;0.40;0.30;;;39.60;34.80;;;;;;5117605;28;20759;-71
2022/06/03 08:28:03;;;;;;;0.30;0.30;;;38.90;35.30;;;;;;5117260;28;20765;-71
2022/06/03 08:30:29;;;;;;;0.40;0.40;;;37.90;34.80;;;;;;5117223;28;20402;-69
2022/06/03 08:33:01;;;;;;;0.40;0.40;;;36.80;37.40;;;;;;5116951;28;20499;-69
2022/06/03 08:35:31;;;;;;;0.30;0.30;;;36.10;39.60;;;;;;5117130;28;20409;-72
2022/06/03 08:38:07;;;;;;;0.83;0.77;;;35.40;37.40;;;;;;5117145;28;20471;-71
2022/06/03 08:40:55;;;;;;;0.30;0.30;;;35.40;36.50;;;;;;5117004;28;20393;-71
2022/06/03 08:43:29;;;;;;;0.80;0.80;;;36.00;37.30;;;;;;5116796;28;20444;-71
2022/06/03 08:46:19;;;;;;;0.43;0.40;;;36.00;36.80;;;;;;5116834;28;20419;-69
2022/06/03 08:48:47;;;;;;;0.30;0.30;;;36.20;36.30;;;;;;5116190;28;20501;-72
2022/06/03 08:51:24;;;;;;;0.77;0.77;;;36.10;36.50;;;;;;5116851;28;20431;-72
2022/06/03 08:53:54;;;;;;;1.40;1.30;;;37.00;36.80;;;;;;5116704;28;20497;-71
2022/06/03 08:56:21;;;;;;;0.43;0.43;;;37.10;34.10;;;;;;5116682;28;20441;-70
2022/06/03 08:59:01;;;;;;;1.40;0.70;;;35.60;37.70;;;;;;5115471;28;20425;-69
2022/06/03 09:01:40;;;;;;;0.40;0.30;;;34.60;37.70;;;;;;5115249;28;20830;-71
2022/06/03 09:04:17;;;;;;;0.57;0.57;;;32.90;38.90;;;;;;5116125;28;20875;-70
2022/06/03 09:07:03;;;;;;;0.40;0.40;;;31.20;41.80;;;;;;5116528;28;20398;-71
2022/06/03 09:10:04;;;;;;;0.30;0.30;;;30.60;45.60;;;;;;5116239;27;20443;-70
2022/06/03 09:12:33;;;;;;;0.40;0.40;;;30.60;44.10;;;;;;5115589;28;20446;-70
2022/06/03 09:15:10;;;;;;;0.40;0.40;;;32.00;43.00;;;;;;5116373;28;20398;-69
2022/06/03 09:17:44;;;;;;;0.40;0.30;;;33.40;40.40;;;;;;5115813;28;20410;-69
2022/06/03 09:20:19;;;;;;;0.40;0.30;;;34.00;38.00;;;;;;5116272;28;20406;-70
2022/06/03 09:22:47;;;;;;;0.40;0.40;;;34.20;39.50;;;;;;5115721;28;20437;-70
2022/06/03 09:25:16;;;;;;;0.77;0.77;;;35.00;40.20;;;;;;5116115;28;20503;-71
2022/06/03 09:27:45;;;;;;;0.40;0.30;;;35.70;40.00;;;;;;5116037;28;20920;-71
2022/06/03 09:30:14;;;;;;;0.47;0.47;;;36.30;42.20;;;;;;5115875;28;20402;-70
2022/06/03 09:32:47;;;;;;;0.40;0.40;;;36.70;38.70;;;;;;5115623;28;20414;-69
2022/06/03 09:35:18;;;;;;;0.30;0.30;;;36.90;37.90;;;;;;5116014;28;20398;-71
2022/06/03 09:37:51;;;;;;;0.40;0.40;;;36.40;37.00;;;;;;5116014;28;20402;-72
2022/06/03 09:40:27;;;;;;;0.40;0.30;;;36.70;36.40;;;;;;5116099;28;20398;-72
2022/06/03 09:42:59;;;;;;;0.30;0.30;;;36.40;33.20;;;;;;5115712;28;20429;-71
2022/06/03 09:45:26;;;;;;;0.50;0.40;;;37.00;35.70;;;;;;5115565;28;20497;-72
2022/06/03 09:47:52;;;;;;;0.40;0.30;;;37.90;37.00;;;;;;5115599;28;20402;-69
2022/06/03 09:50:22;;;;;;;0.40;0.40;;;37.90;34.30;;;;;;5115650;28;20916;-70
2022/06/03 09:52:49;;;;;;;0.40;0.30;;;37.80;33.70;;;;;;5115336;28;20410;-71
2022/06/03 09:55:37;;;;;;;0.40;0.37;;;37.30;33.40;;;;;;5115543;28;20398;-71
2022/06/03 09:58:05;;;;;;;0.30;0.30;;;36.60;32.80;;;;;;5115608;28;20390;-69
2022/06/03 10:00:48;;;;;;;0.30;0.30;;;35.30;35.40;;;;;;5115282;28;20398;-69
2022/06/03 10:03:15;;;;;;;0.50;0.50;;;34.90;39.10;;;;;;5114924;28;20382;-71
2022/06/03 10:05:45;;;;;;;0.40;0.30;;;34.90;41.40;;;;;;5115361;28;20428;-68
2022/06/03 10:08:12;;;;;;;0.30;0.30;;;34.40;42.50;;;;;;5115320;28;20429;-71
2022/06/03 10:13:23;;;;;;;0.53;0.53;;;33.70;45.50;;;;;;5114909;28;20414;-71
2022/06/03 10:15:56;;;;;;;0.40;0.40;;;33.40;45.70;;;;;;5115054;28;20413;-69
2022/06/03 10:18:36;;;;;;;0.47;0.40;;;33.00;46.90;;;;;;5115141;28;20398;-69
2022/06/03 10:21:05;;;;;;;0.30;0.30;;;33.10;46.50;;;;;;5115047;28;20458;-70
2022/06/03 10:23:35;;;;;;;0.50;0.50;;;33.00;46.00;;;;;;5114313;28;20457;-73
2022/06/03 10:26:01;;;;;;;0.30;0.30;;;32.20;46.80;;;;;;5114802;28;20401;-73
2022/06/03 10:28:40;;;;;;;0.30;0.30;;;31.80;49.60;;;;;;5114011;28;20395;-72
2022/06/03 10:31:14;;;;;;;0.50;0.50;;;31.50;49.00;;;;;;5114723;28;20505;-71
2022/06/03 10:34:07;;;;;;;0.30;0.30;;;31.80;46.90;;;;;;5114912;28;20393;-73
2022/06/03 10:36:37;;;;;;;0.30;0.30;;;31.40;50.20;;;;;;5114940;28;20402;-70
2022/06/03 10:39:04;;;;;;;0.50;0.50;;;30.90;49.70;;;;;;5114644;28;20485;-72
2022/06/03 10:41:39;;;;;;;0.70;0.70;;;29.90;50.20;;;;;;5114673;28;20424;-70
2022/06/03 10:44:17;;;;;;;0.30;0.30;;;29.50;52.80;;;;;;5114512;28;20804;-71
2022/06/03 10:47:12;;;;;;;0.50;0.50;;;29.00;52.50;;;;;;5114596;28;20431;-72
2022/06/03 10:49:59;;;;;;;0.40;0.40;;;28.50;54.40;;;;;;5114565;28;20890;-72
2022/06/03 11:03:32;;;;;;;0.60;0.60;;;25.60;65.60;;;;;;5114045;28;20491;-71
2022/06/03 11:06:06;;;;;;;1.03;1.03;;;24.90;70.20;;;;;;5114466;28;20735;-70
2022/06/03 11:08:50;;;;;;;0.30;0.30;;;24.00;73.90;;;;;;5114411;28;20402;-69
2022/06/03 11:11:33;;;;;;;0.40;0.40;;;23.20;82.70;;;;;;5114214;28;20425;-71
2022/06/03 11:14:23;;;;;;;0.30;0.30;;;22.70;92.00;;;;;;5113890;28;20489;-72
2022/06/03 11:16:53;;;;;;;1.17;1.17;;;22.40;97.10;;;;;;5114231;28;20401;-71
2022/06/03 11:19:20;;;;;;;0.40;0.40;;;22.10;99.80;;;;;;5112779;28;20405;-71
2022/06/03 11:21:46;;;;;;;2.10;0.87;;;22.10;99.90;;;;;;5113907;28;20426;-70
2022/06/03 11:24:11;;;;;;;0.40;0.40;;;22.30;99.90;;;;;;5113522;28;20465;-70
2022/06/03 11:26:42;;;;;;;0.30;0.30;;;22.80;99.90;;;;;;5113921;28;20459;-72
2022/06/03 11:29:17;;;;;;;0.77;0.50;;;23.50;99.90;;;;;;5114176;28;20172;-71
2022/06/03 11:31:46;;;;;;;0.30;0.30;;;23.80;99.00;;;;;;5113911;28;20395;-71
2022/06/03 11:34:23;;;;;;;0.30;0.30;;;24.10;99.20;;;;;;5113856;28;20404;-72
2022/06/03 11:37:08;;;;;;;0.30;0.30;;;24.30;98.10;;;;;;5114081;28;20373;-70
2022/06/03 11:39:50;;;;;;;1.37;1.27;;;24.20;99.10;;;;;;5114804;28;20464;-72
2022/06/03 11:42:38;;;;;;;2.60;2.40;;;23.80;96.70;;;;;;5117815;28;20424;-72
2022/06/03 11:45:38;;;;;;;0.40;0.40;;;23.40;99.30;;;;;;5118121;28;20441;-70
2022/06/03 11:48:11;;;;;;;1.03;0.77;;;22.60;99.90;;;;;;5116597;28;20952;-70
2022/06/03 11:50:37;;;;;;;0.40;0.40;;;21.90;99.90;;;;;;5117987;28;20407;-71
2022/06/03 11:53:04;;;;;;;0.40;0.40;;;21.80;99.90;;;;;;5117725;28;20404;-70
2022/06/03 11:55:32;;;;;;;1.17;0.57;;;21.50;99.90;;;;;;5118002;28;20512;-72
2022/06/03 11:58:12;;;;;;;0.40;0.40;;;21.30;99.90;;;;;;5117764;28;20502;-70
2022/06/03 12:00:47;;;;;;;0.53;0.53;;;20.70;99.90;;;;;;5117639;28;20403;-71
2022/06/03 12:03:55;;;;;;;0.30;0.30;;;20.80;99.90;;;;;;5117506;28;20418;-71
2022/06/03 12:06:33;;;;;;;0.40;0.40;;;20.70;99.90;;;;;;5074880;28;20411;-70
2022/06/03 12:09:23;;;;;;;0.30;0.30;;;20.70;99.90;;;;;;5114413;28;20417;-70
2022/06/03 12:13:15;;;;;;;0.40;0.40;;;20.60;99.90;;;;;;5117598;28;20811;-70
2022/06/03 12:15:47;;;;;;;0.30;0.30;;;20.70;99.90;;;;;;5102943;28;20917;-71
2022/06/03 12:18:13;;;;;;;0.40;0.40;;;20.70;99.90;;;;;;5108891;28;20562;-72
2022/06/03 12:20:48;;;;;;;0.40;0.40;;;21.00;99.90;;;;;;5117400;28;20492;-72
2022/06/03 12:23:13;;;;;;;0.50;0.50;;;21.10;99.90;;;;;;5117093;27;20722;-72
2022/06/03 12:25:48;;;;;;;0.40;0.40;;;21.10;99.90;;;;;;5117226;28;20487;-71
2022/06/03 12:28:21;;;;;;;0.30;0.30;;;21.10;99.90;;;;;;5117449;28;20513;-72
2022/06/03 12:31:13;;;;;;;0.50;0.50;;;21.10;99.90;;;;;;5117261;28;20513;-72
2022/06/03 12:33:55;;;;;;;0.40;0.40;;;21.20;99.90;;;;;;5116976;28;20408;-71
2022/06/03 12:36:24;;;;;;;0.50;0.50;;;21.20;99.90;;;;;;5117103;28;20406;-72
2022/06/03 12:39:11;;;;;;;0.30;0.30;;;21.40;99.90;;;;;;5117262;28;20437;-71
2022/06/03 12:41:46;;;;;;;0.50;0.50;;;21.70;99.90;;;;;;5117058;28;20441;-71
2022/06/03 12:44:50;;;;;;;0.30;0.30;;;22.00;99.90;;;;;;5116715;28;20478;-72
2022/06/03 12:47:18;;;;;;;0.30;0.30;;;22.20;99.90;;;;;;5117007;28;20401;-71
2022/06/03 12:49:44;;;;;;;0.40;0.40;;;21.90;99.90;;;;;;5116831;28;20395;-70
2022/06/03 12:52:21;;;;;;;0.40;0.40;;;22.00;99.90;;;;;;5115674;28;20471;-71
2022/06/03 12:55:09;;;;;;;0.30;0.30;;;22.20;99.90;;;;;;5115445;28;20688;-70
2022/06/03 12:58:04;;;;;;;0.40;0.40;;;22.20;99.90;;;;;;5116897;27;20410;-72
2022/06/03 13:00:36;;;;;;;0.47;0.47;;;22.40;99.90;;;;;;5114757;28;20539;-71
2022/06/03 13:03:26;;;;;;;0.50;0.50;;;22.50;99.90;;;;;;5116277;28;20458;-72
2022/06/03 13:05:54;;;;;;;0.40;0.40;;;22.60;99.90;;;;;;5116445;28;20409;-72
2022/06/03 13:08:28;;;;;;;0.30;0.30;;;22.60;99.90;;;;;;5116549;28;20390;-70
2022/06/03 13:11:03;;;;;;;0.30;0.30;;;22.60;99.90;;;;;;5116205;28;20442;-72
2022/06/03 13:13:29;;;;;;;1.70;0.70;;;22.60;99.90;;;;;;5116188;28;20401;-72
2022/06/03 13:16:20;;;;;;;0.40;0.40;;;22.50;99.90;;;;;;5116274;28;20484;-70
2022/06/03 13:18:47;;;;;;;1.07;0.70;;;22.30;99.90;;;;;;5116410;28;20221;-72
2022/06/03 13:21:14;;;;;;;0.40;0.40;;;22.00;99.90;;;;;;5116023;28;20507;-70
2022/06/03 13:23:44;;;;;;;0.50;0.50;;;21.80;99.90;;;;;;5115752;28;20453;-70
2022/06/03 13:26:30;;;;;;;0.30;0.30;;;21.60;99.90;;;;;;5115967;28;20400;-69
2022/06/03 13:29:07;;;;;;;0.50;0.50;;;21.40;99.90;;;;;;5094523;28;20408;-69
2022/06/03 13:31:41;;;;;;;0.30;0.30;;;21.30;99.90;;;;;;5116023;28;20546;-69
2022/06/03 13:34:13;;;;;;;0.43;0.43;;;21.10;99.90;;;;;;5115782;28;20395;-72
2022/06/03 13:36:50;;;;;;;0.30;0.30;;;21.00;99.90;;;;;;5116298;28;20400;-71
2022/06/03 13:39:27;;;;;;;0.30;0.30;;;20.90;99.90;;;;;;5116043;28;20433;-71
2022/06/03 13:45:02;;;;;;;0.53;0.53;;;20.60;99.90;;;;;;5115981;28;20515;-70
2022/06/03 13:47:31;;;;;;;0.30;0.30;;;20.50;99.90;;;;;;5115916;28;20390;-70
2022/06/03 13:50:14;;;;;;;0.30;0.30;;;20.40;99.90;;;;;;5115678;28;20398;-70
2022/06/03 13:52:46;;;;;;;0.80;0.80;;;20.30;99.90;;;;;;5115483;28;20429;-72
2022/06/03 13:55:36;;;;;;;0.40;0.40;;;20.40;99.90;;;;;;5115589;28;20786;-72
2022/06/03 13:58:15;;;;;;;0.30;0.30;;;20.40;99.90;;;;;;5115723;28;20492;-69
2022/06/03 14:00:49;;;;;;;0.30;0.30;;;20.40;99.90;;;;;;5115521;28;20424;-70
2022/06/03 14:03:20;;;;;;;0.40;0.40;;;20.50;99.90;;;;;;5114054;28;20401;-69
2022/06/03 14:06:02;;;;;;;5.73;0.73;;;20.50;99.90;;;;;;5115391;28;20398;-70
2022/06/03 14:08:39;;;;;;;0.50;0.50;;;20.60;99.90;;;;;;5114103;28;20933;-70
2022/06/03 14:11:05;;;;;;;0.40;0.40;;;20.60;99.90;;;;;;5115098;28;20427;-72
2022/06/03 14:13:42;;;;;;;0.30;0.30;;;20.60;99.90;;;;;;5115026;28;20427;-70
2022/06/03 14:16:48;;;;;;;0.30;0.30;;;20.60;99.90;;;;;;5115280;28;20167;-71
2022/06/03 14:19:34;;;;;;;0.30;0.30;;;20.50;99.90;;;;;;5115230;28;20403;-72
2022/06/03 14:22:09;;;;;;;0.30;0.30;;;20.40;99.90;;;;;;5114809;28;20421;-70
2022/06/03 14:24:48;;;;;;;1.37;0.50;;;20.40;99.90;;;;;;5114952;28;20824;-70
2022/06/03 14:27:29;;;;;;;0.30;0.30;;;20.50;99.90;;;;;;5115087;28;20402;-72
2022/06/03 14:30:17;;;;;;;0.30;0.30;;;20.70;99.90;;;;;;5114909;28;20387;-70
2022/06/03 14:32:51;;;;;;;0.30;0.30;;;20.80;99.90;;;;;;5114631;28;20831;-71
2022/06/03 14:35:22;;;;;;;0.30;0.30;;;20.90;99.90;;;;;;5114851;28;20400;-72